Wallace, South Dakota
Current Conditions -  °F | °C
As of 3:43 AM on Thursday 23 Oct 2014 (Local Time) from KATY Reporting Station
Moderate Fog Moderate Fog  
Wind Chill: 37°   Ceiling: 100
Heat Index: 40°   Visibility: 0.5mi
Dew Point: 40°   Wind: 5mph
Humidity: 100%   Direction: 160°SSE
Pressure: 29.97"   Gusts: NA
Location:  45.09°N, 97.48°W
Report Text: KATY 230843Z AUTO 16004KT 1/2SM FG VV001 04/04 A2997 RMK AO2 T00440044
Loading
Personal Weather Stations






























Interactive Weather Map
Tropical Storm Tracking
New forecast layout! Learn more

10-Day Weather Forecast

Advertisements
Track Severe Weather on mobile